sensor_id;sensor_type;location;lat;lon;timestamp;P1;durP1;ratioP1;P2;durP2;ratioP2
11685;SDS011;5899;51.282;6.094;2023-04-01T00:02:29;3.17;;;1.40;;
11685;SDS011;5899;51.282;6.094;2023-04-01T00:04:58;2.58;;;1.33;;
11685;SDS011;5899;51.282;6.094;2023-04-01T00:07:30;2.92;;;1.38;;
11685;SDS011;5899;51.282;6.094;2023-04-01T00:09:58;1.83;;;1.00;;
11685;SDS011;5899;51.282;6.094;2023-04-01T00:12:28;3.33;;;1.17;;
11685;SDS011;5899;51.282;6.094;2023-04-01T00:14:56;2.20;;;1.13;;
11685;SDS011;5899;51.282;6.094;2023-04-01T00:17:25;2.15;;;1.10;;
11685;SDS011;5899;51.282;6.094;2023-04-01T00:19:56;1.85;;;1.13;;
11685;SDS011;5899;51.282;6.094;2023-04-01T00:22:23;2.28;;;1.50;;
11685;SDS011;5899;51.282;6.094;2023-04-01T00:24:53;1.33;;;1.15;;
11685;SDS011;5899;51.282;6.094;2023-04-01T00:27:26;1.70;;;1.20;;
11685;SDS011;5899;51.282;6.094;2023-04-01T00:29:53;1.20;;;1.10;;
11685;SDS011;5899;51.282;6.094;2023-04-01T00:35:19;2.35;;;1.30;;
11685;SDS011;5899;51.282;6.094;2023-04-01T00:37:47;1.70;;;1.60;;
11685;SDS011;5899;51.282;6.094;2023-04-01T00:40:22;1.63;;;1.20;;
11685;SDS011;5899;51.282;6.094;2023-04-01T00:42:49;1.55;;;1.10;;
11685;SDS011;5899;51.282;6.094;2023-04-01T00:45:35;3.33;;;1.10;;
11685;SDS011;5899;51.282;6.094;2023-04-01T00:48:07;1.02;;;0.93;;
11685;SDS011;5899;51.282;6.094;2023-04-01T00:53:32;1.33;;;1.15;;
11685;SDS011;5899;51.282;6.094;2023-04-01T00:56:04;2.03;;;1.10;;
11685;SDS011;5899;51.282;6.094;2023-04-01T00:58:34;2.17;;;1.20;;
11685;SDS011;5899;51.282;6.094;2023-04-01T01:01:01;2.58;;;1.10;;
11685;SDS011;5899;51.282;6.094;2023-04-01T01:03:30;1.30;;;1.08;;
11685;SDS011;5899;51.282;6.094;2023-04-01T01:08:57;2.35;;;1.17;;
11685;SDS011;5899;51.282;6.094;2023-04-01T01:11:30;1.88;;;0.98;;
11685;SDS011;5899;51.282;6.094;2023-04-01T01:14:04;1.67;;;1.17;;
11685;SDS011;5899;51.282;6.094;2023-04-01T01:16:43;1.80;;;1.10;;
11685;SDS011;5899;51.282;6.094;2023-04-01T01:19:21;1.30;;;1.20;;
11685;SDS011;5899;51.282;6.094;2023-04-01T01:22:02;1.90;;;1.35;;
11685;SDS011;5899;51.282;6.094;2023-04-01T01:24:56;2.73;;;1.13;;
11685;SDS011;5899;51.282;6.094;2023-04-01T01:27:39;1.98;;;1.08;;
11685;SDS011;5899;51.282;6.094;2023-04-01T01:30:26;1.67;;;1.20;;
11685;SDS011;5899;51.282;6.094;2023-04-01T01:38:43;1.00;;;0.90;;
11685;SDS011;5899;51.282;6.094;2023-04-01T01:41:23;1.60;;;1.25;;
11685;SDS011;5899;51.282;6.094;2023-04-01T01:43:57;1.58;;;1.00;;
11685;SDS011;5899;51.282;6.094;2023-04-01T01:46:31;1.10;;;1.00;;
11685;SDS011;5899;51.282;6.094;2023-04-01T01:48:59;0.90;;;0.90;;
11685;SDS011;5899;51.282;6.094;2023-04-01T01:51:26;2.47;;;1.15;;
11685;SDS011;5899;51.282;6.094;2023-04-01T01:53:57;1.10;;;1.00;;
11685;SDS011;5899;51.282;6.094;2023-04-01T01:56:33;2.67;;;1.58;;
11685;SDS011;5899;51.282;6.094;2023-04-01T01:59:05;1.25;;;1.05;;
11685;SDS011;5899;51.282;6.094;2023-04-01T02:01:39;1.70;;;1.47;;
11685;SDS011;5899;51.282;6.094;2023-04-01T02:04:12;1.75;;;1.10;;
11685;SDS011;5899;51.282;6.094;2023-04-01T02:06:43;2.15;;;1.00;;
11685;SDS011;5899;51.282;6.094;2023-04-01T02:09:15;1.05;;;1.00;;
11685;SDS011;5899;51.282;6.094;2023-04-01T02:11:43;1.73;;;1.15;;
11685;SDS011;5899;51.282;6.094;2023-04-01T02:14:13;1.10;;;1.00;;
11685;SDS011;5899;51.282;6.094;2023-04-01T02:16:45;1.40;;;1.08;;
11685;SDS011;5899;51.282;6.094;2023-04-01T02:19:13;1.77;;;1.27;;
11685;SDS011;5899;51.282;6.094;2023-04-01T02:21:54;1.35;;;1.25;;
11685;SDS011;5899;51.282;6.094;2023-04-01T02:24:40;1.30;;;1.20;;
11685;SDS011;5899;51.282;6.094;2023-04-01T02:27:11;1.60;;;1.50;;
11685;SDS011;5899;51.282;6.094;2023-04-01T02:29:43;1.50;;;1.10;;
11685;SDS011;5899;51.282;6.094;2023-04-01T02:32:14;1.40;;;1.15;;
11685;SDS011;5899;51.282;6.094;2023-04-01T02:34:47;1.60;;;1.50;;
11685;SDS011;5899;51.282;6.094;2023-04-01T02:37:30;1.20;;;1.10;;
11685;SDS011;5899;51.282;6.094;2023-04-01T02:40:05;1.55;;;1.20;;
11685;SDS011;5899;51.282;6.094;2023-04-01T02:42:35;1.30;;;1.20;;
11685;SDS011;5899;51.282;6.094;2023-04-01T02:45:01;1.50;;;1.27;;
11685;SDS011;5899;51.282;6.094;2023-04-01T02:47:33;2.08;;;1.20;;
11685;SDS011;5899;51.282;6.094;2023-04-01T02:50:05;1.20;;;1.10;;
11685;SDS011;5899;51.282;6.094;2023-04-01T02:52:34;1.25;;;1.15;;
11685;SDS011;5899;51.282;6.094;2023-04-01T02:55:10;2.58;;;1.38;;
11685;SDS011;5899;51.282;6.094;2023-04-01T02:57:39;1.38;;;1.27;;
11685;SDS011;5899;51.282;6.094;2023-04-01T03:00:11;2.42;;;1.40;;
11685;SDS011;5899;51.282;6.094;2023-04-01T03:02:52;2.10;;;1.25;;
11685;SDS011;5899;51.282;6.094;2023-04-01T03:05:22;2.20;;;1.30;;
11685;SDS011;5899;51.282;6.094;2023-04-01T03:07:54;1.60;;;1.30;;
11685;SDS011;5899;51.282;6.094;2023-04-01T03:10:25;1.77;;;1.40;;
11685;SDS011;5899;51.282;6.094;2023-04-01T03:12:59;1.40;;;1.30;;
11685;SDS011;5899;51.282;6.094;2023-04-01T03:15:25;1.42;;;1.27;;
11685;SDS011;5899;51.282;6.094;2023-04-01T03:17:55;1.60;;;1.20;;
11685;SDS011;5899;51.282;6.094;2023-04-01T03:20:26;1.40;;;1.30;;
11685;SDS011;5899;51.282;6.094;2023-04-01T03:22:56;1.65;;;1.20;;
11685;SDS011;5899;51.282;6.094;2023-04-01T03:25:22;2.08;;;1.33;;
11685;SDS011;5899;51.282;6.094;2023-04-01T03:27:51;1.35;;;1.20;;
11685;SDS011;5899;51.282;6.094;2023-04-01T03:30:20;1.50;;;1.40;;
11685;SDS011;5899;51.282;6.094;2023-04-01T03:32:57;1.45;;;1.30;;
11685;SDS011;5899;51.282;6.094;2023-04-01T03:35:34;1.65;;;1.40;;
11685;SDS011;5899;51.282;6.094;2023-04-01T03:38:05;1.60;;;1.50;;
11685;SDS011;5899;51.282;6.094;2023-04-01T03:40:33;2.22;;;1.55;;
11685;SDS011;5899;51.282;6.094;2023-04-01T03:43:08;1.60;;;1.50;;
11685;SDS011;5899;51.282;6.094;2023-04-01T03:45:40;2.08;;;1.58;;
11685;SDS011;5899;51.282;6.094;2023-04-01T03:48:09;1.92;;;1.70;;
11685;SDS011;5899;51.282;6.094;2023-04-01T03:50:37;3.95;;;1.65;;
11685;SDS011;5899;51.282;6.094;2023-04-01T03:53:11;2.17;;;1.70;;
11685;SDS011;5899;51.282;6.094;2023-04-01T03:55:39;2.15;;;1.85;;
11685;SDS011;5899;51.282;6.094;2023-04-01T03:58:07;2.67;;;2.10;;
11685;SDS011;5899;51.282;6.094;2023-04-01T04:00:38;2.20;;;2.00;;
11685;SDS011;5899;51.282;6.094;2023-04-01T04:03:05;2.95;;;2.05;;
11685;SDS011;5899;51.282;6.094;2023-04-01T04:05:35;2.58;;;2.05;;
11685;SDS011;5899;51.282;6.094;2023-04-01T04:08:14;2.17;;;2.00;;
11685;SDS011;5899;51.282;6.094;2023-04-01T04:10:42;3.05;;;2.28;;
11685;SDS011;5899;51.282;6.094;2023-04-01T04:13:15;2.30;;;1.83;;
11685;SDS011;5899;51.282;6.094;2023-04-01T04:15:47;1.92;;;1.73;;
11685;SDS011;5899;51.282;6.094;2023-04-01T04:18:14;1.85;;;1.75;;
11685;SDS011;5899;51.282;6.094;2023-04-01T04:20:44;2.63;;;1.80;;
11685;SDS011;5899;51.282;6.094;2023-04-01T04:23:19;2.88;;;1.90;;
11685;SDS011;5899;51.282;6.094;2023-04-01T04:25:58;2.83;;;1.85;;
11685;SDS011;5899;51.282;6.094;2023-04-01T04:28:37;2.47;;;1.95;;
11685;SDS011;5899;51.282;6.094;2023-04-01T04:31:04;2.80;;;2.00;;
11685;SDS011;5899;51.282;6.094;2023-04-01T04:33:32;2.30;;;2.10;;
11685;SDS011;5899;51.282;6.094;2023-04-01T04:35:59;2.30;;;2.05;;
11685;SDS011;5899;51.282;6.094;2023-04-01T04:38:32;3.20;;;2.38;;
11685;SDS011;5899;51.282;6.094;2023-04-01T04:41:01;2.63;;;2.40;;
11685;SDS011;5899;51.282;6.094;2023-04-01T04:43:35;2.80;;;2.58;;
11685;SDS011;5899;51.282;6.094;2023-04-01T04:46:10;2.40;;;2.20;;
11685;SDS011;5899;51.282;6.094;2023-04-01T04:48:39;2.67;;;2.47;;
11685;SDS011;5899;51.282;6.094;2023-04-01T04:51:12;2.72;;;2.53;;
11685;SDS011;5899;51.282;6.094;2023-04-01T04:53:40;2.53;;;2.33;;
11685;SDS011;5899;51.282;6.094;2023-04-01T04:56:18;3.63;;;2.80;;
11685;SDS011;5899;51.282;6.094;2023-04-01T04:58:46;2.93;;;2.63;;
11685;SDS011;5899;51.282;6.094;2023-04-01T05:01:15;3.25;;;2.80;;
11685;SDS011;5899;51.282;6.094;2023-04-01T05:03:45;5.03;;;3.03;;
11685;SDS011;5899;51.282;6.094;2023-04-01T05:06:12;3.40;;;2.90;;
11685;SDS011;5899;51.282;6.094;2023-04-01T05:08:41;3.25;;;2.95;;
11685;SDS011;5899;51.282;6.094;2023-04-01T05:11:10;3.50;;;3.20;;
11685;SDS011;5899;51.282;6.094;2023-04-01T05:13:40;3.40;;;3.10;;
11685;SDS011;5899;51.282;6.094;2023-04-01T05:16:13;4.05;;;3.13;;
11685;SDS011;5899;51.282;6.094;2023-04-01T05:18:42;3.87;;;3.50;;
11685;SDS011;5899;51.282;6.094;2023-04-01T05:21:12;4.00;;;3.60;;
11685;SDS011;5899;51.282;6.094;2023-04-01T05:23:41;4.20;;;3.80;;
11685;SDS011;5899;51.282;6.094;2023-04-01T05:26:11;3.90;;;3.60;;
11685;SDS011;5899;51.282;6.094;2023-04-01T05:28:42;4.10;;;3.70;;
11685;SDS011;5899;51.282;6.094;2023-04-01T05:31:34;4.10;;;3.65;;
11685;SDS011;5899;51.282;6.094;2023-04-01T05:34:04;4.00;;;3.60;;
11685;SDS011;5899;51.282;6.094;2023-04-01T05:36:34;4.80;;;3.70;;
11685;SDS011;5899;51.282;6.094;2023-04-01T05:39:03;3.95;;;3.55;;
11685;SDS011;5899;51.282;6.094;2023-04-01T05:41:31;5.37;;;4.20;;
11685;SDS011;5899;51.282;6.094;2023-04-01T05:44:03;4.80;;;3.73;;
11685;SDS011;5899;51.282;6.094;2023-04-01T05:46:38;4.30;;;3.90;;
11685;SDS011;5899;51.282;6.094;2023-04-01T05:49:06;4.10;;;3.70;;
11685;SDS011;5899;51.282;6.094;2023-04-01T05:51:37;4.53;;;4.10;;
11685;SDS011;5899;51.282;6.094;2023-04-01T05:54:05;4.37;;;3.97;;
11685;SDS011;5899;51.282;6.094;2023-04-01T05:56:36;5.63;;;4.27;;
11685;SDS011;5899;51.282;6.094;2023-04-01T05:59:08;5.05;;;4.40;;
11685;SDS011;5899;51.282;6.094;2023-04-01T06:01:40;4.50;;;4.10;;
11685;SDS011;5899;51.282;6.094;2023-04-01T06:04:10;5.30;;;3.90;;
11685;SDS011;5899;51.282;6.094;2023-04-01T06:06:40;3.70;;;3.40;;
11685;SDS011;5899;51.282;6.094;2023-04-01T06:09:12;3.92;;;3.33;;
11685;SDS011;5899;51.282;6.094;2023-04-01T06:11:40;3.90;;;3.50;;
11685;SDS011;5899;51.282;6.094;2023-04-01T06:14:16;3.65;;;3.35;;
11685;SDS011;5899;51.282;6.094;2023-04-01T06:16:54;3.80;;;3.50;;
11685;SDS011;5899;51.282;6.094;2023-04-01T06:19:30;3.70;;;3.40;;
11685;SDS011;5899;51.282;6.094;2023-04-01T06:22:08;3.58;;;3.28;;
11685;SDS011;5899;51.282;6.094;2023-04-01T06:24:49;3.88;;;3.58;;
11685;SDS011;5899;51.282;6.094;2023-04-01T06:27:24;3.90;;;3.60;;
11685;SDS011;5899;51.282;6.094;2023-04-01T06:30:04;3.72;;;3.28;;
11685;SDS011;5899;51.282;6.094;2023-04-01T06:32:51;3.75;;;3.45;;
11685;SDS011;5899;51.282;6.094;2023-04-01T06:35:29;3.73;;;3.43;;
11685;SDS011;5899;51.282;6.094;2023-04-01T06:40:55;3.13;;;2.83;;
11685;SDS011;5899;51.282;6.094;2023-04-01T06:43:35;3.60;;;3.30;;
11685;SDS011;5899;51.282;6.094;2023-04-01T06:46:07;3.28;;;3.00;;
11685;SDS011;5899;51.282;6.094;2023-04-01T06:48:42;3.50;;;3.20;;
11685;SDS011;5899;51.282;6.094;2023-04-01T06:51:18;4.00;;;3.60;;
11685;SDS011;5899;51.282;6.094;2023-04-01T06:53:49;4.25;;;3.50;;
11685;SDS011;5899;51.282;6.094;2023-04-01T06:56:23;5.05;;;4.60;;
11685;SDS011;5899;51.282;6.094;2023-04-01T06:58:59;3.50;;;3.20;;
11685;SDS011;5899;51.282;6.094;2023-04-01T07:01:29;3.72;;;3.42;;
11685;SDS011;5899;51.282;6.094;2023-04-01T07:04:05;4.00;;;3.50;;
11685;SDS011;5899;51.282;6.094;2023-04-01T07:06:35;3.88;;;3.50;;
11685;SDS011;5899;51.282;6.094;2023-04-01T07:09:04;3.90;;;3.60;;
11685;SDS011;5899;51.282;6.094;2023-04-01T07:11:33;4.20;;;3.77;;
11685;SDS011;5899;51.282;6.094;2023-04-01T07:14:03;4.97;;;4.50;;
11685;SDS011;5899;51.282;6.094;2023-04-01T07:16:36;4.38;;;3.97;;
11685;SDS011;5899;51.282;6.094;2023-04-01T07:19:08;4.20;;;3.80;;
11685;SDS011;5899;51.282;6.094;2023-04-01T07:21:40;3.83;;;3.42;;
11685;SDS011;5899;51.282;6.094;2023-04-01T07:24:13;4.38;;;3.97;;
11685;SDS011;5899;51.282;6.094;2023-04-01T07:26:42;3.92;;;3.60;;
11685;SDS011;5899;51.282;6.094;2023-04-01T07:29:15;4.00;;;3.70;;
11685;SDS011;5899;51.282;6.094;2023-04-01T07:34:33;3.65;;;3.35;;
11685;SDS011;5899;51.282;6.094;2023-04-01T07:37:06;3.40;;;3.10;;
11685;SDS011;5899;51.282;6.094;2023-04-01T07:39:38;3.53;;;3.22;;
11685;SDS011;5899;51.282;6.094;2023-04-01T07:42:08;2.90;;;2.70;;
11685;SDS011;5899;51.282;6.094;2023-04-01T07:44:41;3.70;;;3.15;;
11685;SDS011;5899;51.282;6.094;2023-04-01T07:47:17;3.80;;;3.47;;
11685;SDS011;5899;51.282;6.094;2023-04-01T07:49:57;4.10;;;3.70;;
11685;SDS011;5899;51.282;6.094;2023-04-01T07:52:31;3.27;;;2.83;;
11685;SDS011;5899;51.282;6.094;2023-04-01T07:55:03;4.82;;;4.00;;
11685;SDS011;5899;51.282;6.094;2023-04-01T07:57:46;3.67;;;3.37;;
11685;SDS011;5899;51.282;6.094;2023-04-01T08:00:18;3.80;;;3.50;;
11685;SDS011;5899;51.282;6.094;2023-04-01T08:02:51;4.15;;;3.75;;
11685;SDS011;5899;51.282;6.094;2023-04-01T08:05:25;3.95;;;3.65;;
11685;SDS011;5899;51.282;6.094;2023-04-01T08:07:55;3.80;;;3.50;;
11685;SDS011;5899;51.282;6.094;2023-04-01T08:10:25;4.73;;;4.23;;
11685;SDS011;5899;51.282;6.094;2023-04-01T08:12:57;4.78;;;4.38;;
11685;SDS011;5899;51.282;6.094;2023-04-01T08:15:31;5.47;;;4.97;;
11685;SDS011;5899;51.282;6.094;2023-04-01T08:18:11;5.07;;;4.57;;
11685;SDS011;5899;51.282;6.094;2023-04-01T08:20:47;5.78;;;4.80;;
11685;SDS011;5899;51.282;6.094;2023-04-01T08:23:15;5.40;;;4.88;;
11685;SDS011;5899;51.282;6.094;2023-04-01T08:25:48;5.20;;;4.65;;
11685;SDS011;5899;51.282;6.094;2023-04-01T08:28:17;5.55;;;5.03;;
11685;SDS011;5899;51.282;6.094;2023-04-01T08:30:55;6.32;;;5.32;;
11685;SDS011;5899;51.282;6.094;2023-04-01T08:33:24;5.47;;;4.78;;
11685;SDS011;5899;51.282;6.094;2023-04-01T08:36:05;5.70;;;5.10;;
11685;SDS011;5899;51.282;6.094;2023-04-01T08:38:34;6.82;;;5.65;;
11685;SDS011;5899;51.282;6.094;2023-04-01T08:44:05;7.22;;;6.47;;
11685;SDS011;5899;51.282;6.094;2023-04-01T08:49:42;8.48;;;7.35;;
11685;SDS011;5899;51.282;6.094;2023-04-01T08:55:19;9.33;;;7.63;;
11685;SDS011;5899;51.282;6.094;2023-04-01T08:57:53;9.38;;;7.65;;
11685;SDS011;5899;51.282;6.094;2023-04-01T09:00:27;11.15;;;7.45;;
11685;SDS011;5899;51.282;6.094;2023-04-01T09:06:00;10.55;;;7.40;;
11685;SDS011;5899;51.282;6.094;2023-04-01T09:08:36;9.83;;;7.83;;
11685;SDS011;5899;51.282;6.094;2023-04-01T09:11:29;10.63;;;7.85;;
11685;SDS011;5899;51.282;6.094;2023-04-01T09:14:06;9.07;;;7.82;;
11685;SDS011;5899;51.282;6.094;2023-04-01T09:16:58;8.85;;;7.32;;
11685;SDS011;5899;51.282;6.094;2023-04-01T09:19:32;10.70;;;7.57;;
11685;SDS011;5899;51.282;6.094;2023-04-01T09:22:08;9.52;;;7.72;;
11685;SDS011;5899;51.282;6.094;2023-04-01T09:27:30;8.73;;;6.95;;
11685;SDS011;5899;51.282;6.094;2023-04-01T09:33:02;7.72;;;6.47;;
11685;SDS011;5899;51.282;6.094;2023-04-01T09:35:39;7.87;;;6.37;;
11685;SDS011;5899;51.282;6.094;2023-04-01T09:38:17;8.32;;;6.47;;
11685;SDS011;5899;51.282;6.094;2023-04-01T09:40:54;6.73;;;5.83;;
11685;SDS011;5899;51.282;6.094;2023-04-01T09:43:29;6.38;;;5.78;;
11685;SDS011;5899;51.282;6.094;2023-04-01T09:49:04;7.30;;;5.23;;
11685;SDS011;5899;51.282;6.094;2023-04-01T09:51:36;5.20;;;4.30;;
11685;SDS011;5899;51.282;6.094;2023-04-01T09:54:09;4.70;;;4.20;;
11685;SDS011;5899;51.282;6.094;2023-04-01T09:56:59;4.55;;;4.15;;
11685;SDS011;5899;51.282;6.094;2023-04-01T10:08:21;5.85;;;4.97;;
11685;SDS011;5899;51.282;6.094;2023-04-01T10:23:04;6.78;;;5.70;;
11685;SDS011;5899;51.282;6.094;2023-04-01T10:31:57;7.57;;;5.93;;
11685;SDS011;5899;51.282;6.094;2023-04-01T11:13:01;6.75;;;6.00;;
11685;SDS011;5899;51.282;6.094;2023-04-01T11:15:40;8.10;;;5.93;;
11685;SDS011;5899;51.282;6.094;2023-04-01T11:20:59;6.40;;;5.70;;
11685;SDS011;5899;51.282;6.094;2023-04-01T11:23:36;6.68;;;5.88;;
11685;SDS011;5899;51.282;6.094;2023-04-01T11:26:07;9.60;;;6.10;;
11685;SDS011;5899;51.282;6.094;2023-04-01T11:28:45;6.53;;;5.82;;
11685;SDS011;5899;51.282;6.094;2023-04-01T11:31:22;6.68;;;5.50;;
11685;SDS011;5899;51.282;6.094;2023-04-01T11:33:53;7.38;;;5.03;;
11685;SDS011;5899;51.282;6.094;2023-04-01T11:36:25;5.80;;;5.05;;
11685;SDS011;5899;51.282;6.094;2023-04-01T11:39:00;6.00;;;5.50;;
11685;SDS011;5899;51.282;6.094;2023-04-01T11:41:30;8.05;;;5.85;;
11685;SDS011;5899;51.282;6.094;2023-04-01T11:44:16;6.93;;;5.70;;
11685;SDS011;5899;51.282;6.094;2023-04-01T11:46:50;5.72;;;5.10;;
11685;SDS011;5899;51.282;6.094;2023-04-01T11:49:25;5.80;;;5.22;;
11685;SDS011;5899;51.282;6.094;2023-04-01T11:52:00;6.68;;;5.28;;
11685;SDS011;5899;51.282;6.094;2023-04-01T11:54:39;5.57;;;4.33;;
11685;SDS011;5899;51.282;6.094;2023-04-01T11:57:15;5.78;;;5.22;;
11685;SDS011;5899;51.282;6.094;2023-04-01T11:59:57;4.82;;;4.30;;
11685;SDS011;5899;51.282;6.094;2023-04-01T12:02:33;5.05;;;4.05;;
11685;SDS011;5899;51.282;6.094;2023-04-01T12:05:13;5.38;;;4.18;;
11685;SDS011;5899;51.282;6.094;2023-04-01T12:07:53;4.65;;;3.78;;
11685;SDS011;5899;51.282;6.094;2023-04-01T12:10:25;4.00;;;3.70;;
11685;SDS011;5899;51.282;6.094;2023-04-01T12:12:54;4.50;;;4.10;;
11685;SDS011;5899;51.282;6.094;2023-04-01T12:15:28;5.63;;;3.80;;
11685;SDS011;5899;51.282;6.094;2023-04-01T12:17:56;3.97;;;3.50;;
11685;SDS011;5899;51.282;6.094;2023-04-01T12:20:29;4.50;;;3.10;;
11685;SDS011;5899;51.282;6.094;2023-04-01T12:23:01;3.78;;;3.40;;
11685;SDS011;5899;51.282;6.094;2023-04-01T12:25:37;4.00;;;3.60;;
11685;SDS011;5899;51.282;6.094;2023-04-01T12:28:08;4.40;;;3.60;;
11685;SDS011;5899;51.282;6.094;2023-04-01T12:30:43;3.83;;;3.42;;
11685;SDS011;5899;51.282;6.094;2023-04-01T12:36:03;4.23;;;3.83;;
11685;SDS011;5899;51.282;6.094;2023-04-01T12:38:37;4.00;;;3.60;;
11685;SDS011;5899;51.282;6.094;2023-04-01T12:41:08;4.20;;;3.75;;
11685;SDS011;5899;51.282;6.094;2023-04-01T12:46:28;4.43;;;3.83;;
11685;SDS011;5899;51.282;6.094;2023-04-01T12:49:12;4.70;;;4.20;;
11685;SDS011;5899;51.282;6.094;2023-04-01T12:51:57;5.28;;;4.30;;
11685;SDS011;5899;51.282;6.094;2023-04-01T12:57:14;5.45;;;4.50;;
11685;SDS011;5899;51.282;6.094;2023-04-01T12:59:48;5.68;;;4.93;;
11685;SDS011;5899;51.282;6.094;2023-04-01T13:02:22;4.30;;;3.90;;
11685;SDS011;5899;51.282;6.094;2023-04-01T13:05:00;6.20;;;4.47;;
11685;SDS011;5899;51.282;6.094;2023-04-01T13:07:37;4.88;;;4.25;;
11685;SDS011;5899;51.282;6.094;2023-04-01T13:10:09;4.20;;;3.80;;
11685;SDS011;5899;51.282;6.094;2023-04-01T13:12:47;5.35;;;4.47;;
11685;SDS011;5899;51.282;6.094;2023-04-01T13:15:25;4.60;;;4.15;;
11685;SDS011;5899;51.282;6.094;2023-04-01T13:17:58;4.75;;;4.28;;
11685;SDS011;5899;51.282;6.094;2023-04-01T13:20:30;4.78;;;4.22;;
11685;SDS011;5899;51.282;6.094;2023-04-01T13:23:04;4.57;;;4.03;;
11685;SDS011;5899;51.282;6.094;2023-04-01T13:25:34;4.32;;;3.92;;
11685;SDS011;5899;51.282;6.094;2023-04-01T13:28:05;4.00;;;3.45;;
11685;SDS011;5899;51.282;6.094;2023-04-01T13:30:34;3.75;;;3.33;;
11685;SDS011;5899;51.282;6.094;2023-04-01T13:33:06;4.80;;;3.70;;
11685;SDS011;5899;51.282;6.094;2023-04-01T13:35:41;3.95;;;3.55;;
11685;SDS011;5899;51.282;6.094;2023-04-01T13:38:20;4.10;;;3.70;;
11685;SDS011;5899;51.282;6.094;2023-04-01T13:40:51;5.10;;;4.60;;
11685;SDS011;5899;51.282;6.094;2023-04-01T13:43:20;4.80;;;4.13;;
11685;SDS011;5899;51.282;6.094;2023-04-01T13:46:03;4.55;;;3.90;;
11685;SDS011;5899;51.282;6.094;2023-04-01T13:56:48;4.93;;;4.43;;
11685;SDS011;5899;51.282;6.094;2023-04-01T13:59:29;5.25;;;4.53;;
11685;SDS011;5899;51.282;6.094;2023-04-01T14:02:05;4.43;;;3.50;;
11685;SDS011;5899;51.282;6.094;2023-04-01T14:05:02;4.80;;;4.00;;
11685;SDS011;5899;51.282;6.094;2023-04-01T14:07:49;4.43;;;4.03;;
11685;SDS011;5899;51.282;6.094;2023-04-01T14:13:12;4.57;;;3.85;;
11685;SDS011;5899;51.282;6.094;2023-04-01T14:15:54;4.03;;;3.63;;
11685;SDS011;5899;51.282;6.094;2023-04-01T14:18:29;4.00;;;3.27;;
11685;SDS011;5899;51.282;6.094;2023-04-01T14:21:04;4.07;;;3.57;;
11685;SDS011;5899;51.282;6.094;2023-04-01T14:23:41;3.47;;;3.17;;
11685;SDS011;5899;51.282;6.094;2023-04-01T14:26:13;4.60;;;4.03;;
11685;SDS011;5899;51.282;6.094;2023-04-01T14:28:54;5.30;;;4.80;;
11685;SDS011;5899;51.282;6.094;2023-04-01T14:31:38;4.78;;;4.28;;
11685;SDS011;5899;51.282;6.094;2023-04-01T14:34:18;5.05;;;3.92;;
11685;SDS011;5899;51.282;6.094;2023-04-01T14:36:53;5.03;;;4.03;;
11685;SDS011;5899;51.282;6.094;2023-04-01T14:39:48;4.25;;;3.80;;
11685;SDS011;5899;51.282;6.094;2023-04-01T14:42:23;4.70;;;3.90;;
11685;SDS011;5899;51.282;6.094;2023-04-01T14:45:05;4.27;;;3.83;;
11685;SDS011;5899;51.282;6.094;2023-04-01T14:47:48;4.97;;;4.20;;
11685;SDS011;5899;51.282;6.094;2023-04-01T14:50:21;5.40;;;4.90;;
11685;SDS011;5899;51.282;6.094;2023-04-01T14:52:53;4.57;;;4.18;;
11685;SDS011;5899;51.282;6.094;2023-04-01T14:55:29;3.60;;;3.27;;
11685;SDS011;5899;51.282;6.094;2023-04-01T14:58:04;3.40;;;3.10;;
11685;SDS011;5899;51.282;6.094;2023-04-01T15:00:43;3.33;;;3.03;;
11685;SDS011;5899;51.282;6.094;2023-04-01T15:03:14;4.25;;;3.60;;
11685;SDS011;5899;51.282;6.094;2023-04-01T15:05:44;3.67;;;3.38;;
11685;SDS011;5899;51.282;6.094;2023-04-01T15:08:21;3.67;;;3.37;;
11685;SDS011;5899;51.282;6.094;2023-04-01T15:10:59;4.72;;;4.03;;
11685;SDS011;5899;51.282;6.094;2023-04-01T15:13:48;4.93;;;4.30;;
11685;SDS011;5899;51.282;6.094;2023-04-01T15:16:25;5.05;;;3.83;;
11685;SDS011;5899;51.282;6.094;2023-04-01T15:19:00;4.13;;;3.72;;
11685;SDS011;5899;51.282;6.094;2023-04-01T15:21:36;4.65;;;4.20;;
11685;SDS011;5899;51.282;6.094;2023-04-01T15:24:07;5.05;;;4.38;;
11685;SDS011;5899;51.282;6.094;2023-04-01T15:26:46;4.88;;;3.92;;
11685;SDS011;5899;51.282;6.094;2023-04-01T15:29:29;5.07;;;4.10;;
11685;SDS011;5899;51.282;6.094;2023-04-01T15:32:04;4.85;;;4.25;;
11685;SDS011;5899;51.282;6.094;2023-04-01T15:34:38;5.93;;;4.47;;
11685;SDS011;5899;51.282;6.094;2023-04-01T15:37:16;5.53;;;4.05;;
11685;SDS011;5899;51.282;6.094;2023-04-01T15:39:52;5.95;;;4.90;;
11685;SDS011;5899;51.282;6.094;2023-04-01T15:42:31;5.77;;;5.20;;
11685;SDS011;5899;51.282;6.094;2023-04-01T15:45:12;7.70;;;5.88;;
11685;SDS011;5899;51.282;6.094;2023-04-01T15:47:42;6.40;;;5.33;;
11685;SDS011;5899;51.282;6.094;2023-04-01T15:53:06;4.95;;;4.38;;
11685;SDS011;5899;51.282;6.094;2023-04-01T15:55:40;5.57;;;4.97;;
11685;SDS011;5899;51.282;6.094;2023-04-01T15:58:18;7.10;;;5.57;;
11685;SDS011;5899;51.282;6.094;2023-04-01T16:00:49;5.78;;;4.85;;
11685;SDS011;5899;51.282;6.094;2023-04-01T16:03:30;5.35;;;4.70;;
11685;SDS011;5899;51.282;6.094;2023-04-01T16:06:13;5.80;;;5.10;;
11685;SDS011;5899;51.282;6.094;2023-04-01T16:08:52;5.13;;;4.20;;
11685;SDS011;5899;51.282;6.094;2023-04-01T16:11:25;5.80;;;4.30;;
11685;SDS011;5899;51.282;6.094;2023-04-01T16:14:14;6.10;;;4.63;;
11685;SDS011;5899;51.282;6.094;2023-04-01T16:16:51;4.22;;;3.35;;
11685;SDS011;5899;51.282;6.094;2023-04-01T16:22:09;4.40;;;4.00;;
11685;SDS011;5899;51.282;6.094;2023-04-01T16:24:40;5.13;;;4.27;;
11685;SDS011;5899;51.282;6.094;2023-04-01T16:27:11;4.43;;;3.72;;
11685;SDS011;5899;51.282;6.094;2023-04-01T16:29:40;4.30;;;3.55;;
11685;SDS011;5899;51.282;6.094;2023-04-01T16:32:22;5.70;;;4.25;;
11685;SDS011;5899;51.282;6.094;2023-04-01T16:35:00;5.65;;;4.97;;
11685;SDS011;5899;51.282;6.094;2023-04-01T16:37:33;4.47;;;4.00;;
11685;SDS011;5899;51.282;6.094;2023-04-01T16:40:10;4.00;;;3.60;;
11685;SDS011;5899;51.282;6.094;2023-04-01T16:42:40;4.25;;;3.85;;
11685;SDS011;5899;51.282;6.094;2023-04-01T16:45:21;3.83;;;3.08;;
11685;SDS011;5899;51.282;6.094;2023-04-01T16:47:53;3.53;;;3.22;;
11685;SDS011;5899;51.282;6.094;2023-04-01T16:50:22;3.63;;;3.33;;
11685;SDS011;5899;51.282;6.094;2023-04-01T16:53:02;3.50;;;3.20;;
11685;SDS011;5899;51.282;6.094;2023-04-01T16:55:45;3.20;;;2.90;;
11685;SDS011;5899;51.282;6.094;2023-04-01T16:58:18;3.50;;;3.20;;
11685;SDS011;5899;51.282;6.094;2023-04-01T17:00:49;3.83;;;3.42;;
11685;SDS011;5899;51.282;6.094;2023-04-01T17:03:17;6.72;;;3.70;;
11685;SDS011;5899;51.282;6.094;2023-04-01T17:05:49;8.00;;;4.90;;
11685;SDS011;5899;51.282;6.094;2023-04-01T17:08:27;5.87;;;5.07;;
11685;SDS011;5899;51.282;6.094;2023-04-01T17:11:05;6.53;;;4.05;;
11685;SDS011;5899;51.282;6.094;2023-04-01T17:13:38;4.60;;;3.92;;
11685;SDS011;5899;51.282;6.094;2023-04-01T17:16:30;7.50;;;3.85;;
11685;SDS011;5899;51.282;6.094;2023-04-01T17:19:04;5.22;;;4.45;;
11685;SDS011;5899;51.282;6.094;2023-04-01T17:21:44;4.30;;;3.90;;
11685;SDS011;5899;51.282;6.094;2023-04-01T17:24:27;4.38;;;3.97;;
11685;SDS011;5899;51.282;6.094;2023-04-01T17:27:01;4.25;;;3.83;;
11685;SDS011;5899;51.282;6.094;2023-04-01T17:29:30;4.10;;;3.67;;
11685;SDS011;5899;51.282;6.094;2023-04-01T17:32:02;4.38;;;3.97;;
11685;SDS011;5899;51.282;6.094;2023-04-01T17:37:16;3.90;;;3.50;;
11685;SDS011;5899;51.282;6.094;2023-04-01T17:39:51;4.40;;;4.00;;
11685;SDS011;5899;51.282;6.094;2023-04-01T17:42:20;4.45;;;4.05;;
11685;SDS011;5899;51.282;6.094;2023-04-01T17:44:53;5.38;;;4.10;;
11685;SDS011;5899;51.282;6.094;2023-04-01T17:47:34;4.47;;;4.07;;
11685;SDS011;5899;51.282;6.094;2023-04-01T17:50:08;4.82;;;3.67;;
11685;SDS011;5899;51.282;6.094;2023-04-01T17:52:39;5.40;;;3.87;;
11685;SDS011;5899;51.282;6.094;2023-04-01T17:55:21;3.80;;;3.40;;
11685;SDS011;5899;51.282;6.094;2023-04-01T17:57:54;8.25;;;6.72;;
11685;SDS011;5899;51.282;6.094;2023-04-01T18:00:26;7.25;;;6.30;;